Hlavní strana
METAR-TAF:

METAR-TAF

Letiště :

Mezinárodní letiště Inčchon

Soul-Inčchon, Jižní Korea

zeměpisná šířka: 37-28N, zeměpisná délka: 126-27E, výška: 7 m

Aktuální stav počasí

Zpráva byla vytvořena před 34 minutami, v 22:30 UTC
Severní vítr 9 kt
Teplota -5°C
Vlhkost vzduchu 45%
Tlak 1036 hPa
Viditelnost 10 km a více
Žádná oblačnost pod 1500 m, nevyskytují se cumulonimby.

METAR: RKSI 132230Z 36009KT CAVOK M05/M15 Q1036 NOSIG

Čas: 08:04 (23:04 UTC)

Předpověď počasí

Zpráva byla vytvořena před 6 hodinami a 4 minutami, v 17:00 UTC
Předpověď platná od 13 v 18 UTC do 14 v 24 UTC
Severoseverovýchodní vítr 6 kt
Viditelnost 10 km a více
Žádná oblačnost pod 1500 m, nevyskytují se cumulonimby.
Změna
od 14 v 00 UTC do 14 v 01 UTC
Severoseverozápadní vítr 10 kt
Změna
od 14 v 14 UTC do 14 v 15 UTC
Severovýchodní vítr 6 kt

TAF: RKSI 131700Z 1318/1424 03006KT CAVOK TNM07/1321Z TX00/1406Z TNM06/1422Z BECMG 1400/1401 33010KT BECMG 1414/1415 04006KT

Stav a předpovědi počasí z více než 4 000 letišť (zprávy METAR a TAF).

Červené a žluté tečky na mapě představují dostupné meteorologické stanice.

Když kurzor umístíte na tečku, zobrazí se název stanice.

Pak kliknutím zobrazíte stav a předpověď počasí.

Chcete-li změnit mapu, kliknutím na zelené tlačítko se znaménkem +mapu přiblížíte, kliknutím na zelené tlačítko se znaménkem – mapu oddálíte a kliknutím na zelené šipky přejdete na sousední mapy.


METAR-TAF: